sensor_id;sensor_type;location;lat;lon;timestamp;temperature;humidity
12827;DHT22;66927;48.812;9.118;2023-07-29T00:01:40;19.00;99.90
12827;DHT22;66927;48.812;9.118;2023-07-29T00:04:06;19.00;99.90
12827;DHT22;66927;48.812;9.118;2023-07-29T00:06:33;19.00;99.90
12827;DHT22;66927;48.812;9.118;2023-07-29T00:08:58;19.00;99.90
12827;DHT22;66927;48.812;9.118;2023-07-29T00:11:24;19.00;99.90
12827;DHT22;66927;48.812;9.118;2023-07-29T00:13:50;19.00;99.90
12827;DHT22;66927;48.812;9.118;2023-07-29T00:16:16;19.00;99.90
12827;DHT22;66927;48.812;9.118;2023-07-29T00:18:43;19.10;99.90
12827;DHT22;66927;48.812;9.118;2023-07-29T00:21:08;19.10;99.90
12827;DHT22;66927;48.812;9.118;2023-07-29T00:23:34;19.10;99.90
12827;DHT22;66927;48.812;9.118;2023-07-29T00:26:00;19.10;99.90
12827;DHT22;66927;48.812;9.118;2023-07-29T00:28:25;19.10;99.90
12827;DHT22;66927;48.812;9.118;2023-07-29T00:30:51;19.10;99.90
12827;DHT22;66927;48.812;9.118;2023-07-29T00:33:16;19.10;99.90
12827;DHT22;66927;48.812;9.118;2023-07-29T00:35:42;19.20;99.90
12827;DHT22;66927;48.812;9.118;2023-07-29T00:38:08;19.10;99.90
12827;DHT22;66927;48.812;9.118;2023-07-29T00:40:35;19.10;99.90
12827;DHT22;66927;48.812;9.118;2023-07-29T00:43:02;19.10;99.90
12827;DHT22;66927;48.812;9.118;2023-07-29T00:45:29;19.10;99.90
12827;DHT22;66927;48.812;9.118;2023-07-29T00:47:55;19.10;99.90
12827;DHT22;66927;48.812;9.118;2023-07-29T00:50:21;19.10;99.90
12827;DHT22;66927;48.812;9.118;2023-07-29T00:52:48;19.10;99.90
12827;DHT22;66927;48.812;9.118;2023-07-29T00:55:13;19.10;99.90
12827;DHT22;66927;48.812;9.118;2023-07-29T00:57:39;19.10;99.90
12827;DHT22;66927;48.812;9.118;2023-07-29T01:00:06;19.10;99.90
12827;DHT22;66927;48.812;9.118;2023-07-29T01:02:31;19.00;99.90
12827;DHT22;66927;48.812;9.118;2023-07-29T01:04:58;19.00;99.90
12827;DHT22;66927;48.812;9.118;2023-07-29T01:15:19;19.00;99.90
12827;DHT22;66927;48.812;9.118;2023-07-29T01:17:52;19.00;99.90
12827;DHT22;66927;48.812;9.118;2023-07-29T01:20:20;19.00;99.90
12827;DHT22;66927;48.812;9.118;2023-07-29T01:22:46;19.00;99.90
12827;DHT22;66927;48.812;9.118;2023-07-29T01:25:13;19.00;99.90
12827;DHT22;66927;48.812;9.118;2023-07-29T01:27:40;19.00;99.90
12827;DHT22;66927;48.812;9.118;2023-07-29T01:30:06;19.10;99.90
12827;DHT22;66927;48.812;9.118;2023-07-29T01:33:03;19.00;99.90
12827;DHT22;66927;48.812;9.118;2023-07-29T01:35:37;19.10;99.90
12827;DHT22;66927;48.812;9.118;2023-07-29T01:38:13;19.10;99.90
12827;DHT22;66927;48.812;9.118;2023-07-29T01:40:40;19.10;99.90
12827;DHT22;66927;48.812;9.118;2023-07-29T01:43:06;19.10;99.90
12827;DHT22;66927;48.812;9.118;2023-07-29T01:45:34;19.10;99.90
12827;DHT22;66927;48.812;9.118;2023-07-29T01:48:06;19.00;99.90
12827;DHT22;66927;48.812;9.118;2023-07-29T01:50:32;19.00;99.90
12827;DHT22;66927;48.812;9.118;2023-07-29T01:52:58;18.90;99.90
12827;DHT22;66927;48.812;9.118;2023-07-29T01:55:24;19.00;99.90
12827;DHT22;66927;48.812;9.118;2023-07-29T01:57:50;18.90;99.90
12827;DHT22;66927;48.812;9.118;2023-07-29T02:00:20;18.90;99.90
12827;DHT22;66927;48.812;9.118;2023-07-29T02:02:46;18.90;99.90
12827;DHT22;66927;48.812;9.118;2023-07-29T02:05:11;18.90;99.90
12827;DHT22;66927;48.812;9.118;2023-07-29T02:07:37;18.90;99.90
12827;DHT22;66927;48.812;9.118;2023-07-29T02:10:03;18.90;99.90
12827;DHT22;66927;48.812;9.118;2023-07-29T02:12:28;18.80;99.90
12827;DHT22;66927;48.812;9.118;2023-07-29T02:14:54;18.80;99.90
12827;DHT22;66927;48.812;9.118;2023-07-29T02:17:19;18.90;99.90
12827;DHT22;66927;48.812;9.118;2023-07-29T02:19:46;18.90;99.90
12827;DHT22;66927;48.812;9.118;2023-07-29T02:22:17;18.90;99.90
12827;DHT22;66927;48.812;9.118;2023-07-29T02:24:43;18.90;99.90
12827;DHT22;66927;48.812;9.118;2023-07-29T02:27:08;18.90;99.90
12827;DHT22;66927;48.812;9.118;2023-07-29T02:29:34;18.80;99.90
12827;DHT22;66927;48.812;9.118;2023-07-29T02:32:00;18.90;99.90
12827;DHT22;66927;48.812;9.118;2023-07-29T02:34:25;18.90;99.90
12827;DHT22;66927;48.812;9.118;2023-07-29T02:36:51;18.90;99.90
12827;DHT22;66927;48.812;9.118;2023-07-29T02:39:17;18.90;99.90
12827;DHT22;66927;48.812;9.118;2023-07-29T02:41:42;18.90;99.90
12827;DHT22;66927;48.812;9.118;2023-07-29T02:44:08;18.90;99.90
12827;DHT22;66927;48.812;9.118;2023-07-29T02:46:33;18.90;99.90
12827;DHT22;66927;48.812;9.118;2023-07-29T02:48:59;18.90;99.90
12827;DHT22;66927;48.812;9.118;2023-07-29T02:51:24;18.90;99.90
12827;DHT22;66927;48.812;9.118;2023-07-29T02:53:50;18.90;99.90
12827;DHT22;66927;48.812;9.118;2023-07-29T02:56:16;18.90;99.90
12827;DHT22;66927;48.812;9.118;2023-07-29T02:58:41;19.00;99.90
12827;DHT22;66927;48.812;9.118;2023-07-29T03:01:07;19.00;99.90
12827;DHT22;66927;48.812;9.118;2023-07-29T03:03:33;19.00;99.90
12827;DHT22;66927;48.812;9.118;2023-07-29T03:06:06;18.90;99.90
12827;DHT22;66927;48.812;9.118;2023-07-29T03:08:32;18.90;99.90
12827;DHT22;66927;48.812;9.118;2023-07-29T03:10:58;18.90;99.90
12827;DHT22;66927;48.812;9.118;2023-07-29T03:13:24;18.90;99.90
12827;DHT22;66927;48.812;9.118;2023-07-29T03:15:51;18.90;99.90
12827;DHT22;66927;48.812;9.118;2023-07-29T03:18:16;18.80;99.90
12827;DHT22;66927;48.812;9.118;2023-07-29T03:20:42;18.90;99.90
12827;DHT22;66927;48.812;9.118;2023-07-29T03:23:08;18.80;99.90
12827;DHT22;66927;48.812;9.118;2023-07-29T03:25:33;18.90;99.90
12827;DHT22;66927;48.812;9.118;2023-07-29T03:27:59;18.90;99.90
12827;DHT22;66927;48.812;9.118;2023-07-29T03:30:25;18.80;99.90
12827;DHT22;66927;48.812;9.118;2023-07-29T03:32:51;18.80;99.90
12827;DHT22;66927;48.812;9.118;2023-07-29T03:35:16;18.80;99.90
12827;DHT22;66927;48.812;9.118;2023-07-29T03:37:42;18.80;99.90
12827;DHT22;66927;48.812;9.118;2023-07-29T03:40:08;18.80;99.90
12827;DHT22;66927;48.812;9.118;2023-07-29T03:42:37;18.80;99.90
12827;DHT22;66927;48.812;9.118;2023-07-29T03:45:04;18.80;99.90
12827;DHT22;66927;48.812;9.118;2023-07-29T03:47:30;18.80;99.90
12827;DHT22;66927;48.812;9.118;2023-07-29T03:49:55;18.80;99.90
12827;DHT22;66927;48.812;9.118;2023-07-29T03:52:21;18.80;99.90
12827;DHT22;66927;48.812;9.118;2023-07-29T03:54:46;18.90;99.90
12827;DHT22;66927;48.812;9.118;2023-07-29T03:57:12;18.90;99.90
12827;DHT22;66927;48.812;9.118;2023-07-29T03:59:37;18.90;99.90
12827;DHT22;66927;48.812;9.118;2023-07-29T04:02:04;18.90;99.90
12827;DHT22;66927;48.812;9.118;2023-07-29T04:04:29;18.90;99.90
12827;DHT22;66927;48.812;9.118;2023-07-29T04:06:55;18.90;99.90
12827;DHT22;66927;48.812;9.118;2023-07-29T04:09:20;18.90;99.90
12827;DHT22;66927;48.812;9.118;2023-07-29T04:11:46;18.90;99.90
12827;DHT22;66927;48.812;9.118;2023-07-29T04:14:12;18.90;99.90
12827;DHT22;66927;48.812;9.118;2023-07-29T04:16:37;18.80;99.90
12827;DHT22;66927;48.812;9.118;2023-07-29T04:19:03;18.90;99.90
12827;DHT22;66927;48.812;9.118;2023-07-29T04:21:28;18.80;99.90
12827;DHT22;66927;48.812;9.118;2023-07-29T04:23:54;18.70;99.90
12827;DHT22;66927;48.812;9.118;2023-07-29T04:26:19;18.80;99.90
12827;DHT22;66927;48.812;9.118;2023-07-29T04:28:45;18.70;99.90
12827;DHT22;66927;48.812;9.118;2023-07-29T04:31:11;18.70;99.90
12827;DHT22;66927;48.812;9.118;2023-07-29T04:33:36;18.70;99.90
12827;DHT22;66927;48.812;9.118;2023-07-29T04:36:02;18.60;99.90
12827;DHT22;66927;48.812;9.118;2023-07-29T04:38:31;18.60;99.90
12827;DHT22;66927;48.812;9.118;2023-07-29T04:40:58;18.60;99.90
12827;DHT22;66927;48.812;9.118;2023-07-29T04:43:35;18.60;99.90
12827;DHT22;66927;48.812;9.118;2023-07-29T04:46:01;18.70;99.90
12827;DHT22;66927;48.812;9.118;2023-07-29T04:48:26;18.70;99.90
12827;DHT22;66927;48.812;9.118;2023-07-29T04:50:52;18.70;99.90
12827;DHT22;66927;48.812;9.118;2023-07-29T04:53:18;18.60;99.90
12827;DHT22;66927;48.812;9.118;2023-07-29T04:55:43;18.60;99.90
12827;DHT22;66927;48.812;9.118;2023-07-29T04:58:09;18.60;99.90
12827;DHT22;66927;48.812;9.118;2023-07-29T05:00:35;18.60;99.90
12827;DHT22;66927;48.812;9.118;2023-07-29T05:03:01;18.60;99.90
12827;DHT22;66927;48.812;9.118;2023-07-29T05:05:27;18.70;99.90
12827;DHT22;66927;48.812;9.118;2023-07-29T05:07:52;18.70;99.90
12827;DHT22;66927;48.812;9.118;2023-07-29T05:10:18;18.70;99.90
12827;DHT22;66927;48.812;9.118;2023-07-29T05:12:44;18.60;99.90
12827;DHT22;66927;48.812;9.118;2023-07-29T05:15:10;18.60;99.90
12827;DHT22;66927;48.812;9.118;2023-07-29T05:17:36;18.60;99.90
12827;DHT22;66927;48.812;9.118;2023-07-29T05:20:01;18.70;99.90
12827;DHT22;66927;48.812;9.118;2023-07-29T05:22:28;18.70;99.90
12827;DHT22;66927;48.812;9.118;2023-07-29T05:24:53;18.70;99.90
12827;DHT22;66927;48.812;9.118;2023-07-29T05:27:19;18.70;99.90
12827;DHT22;66927;48.812;9.118;2023-07-29T05:29:44;18.70;99.90
12827;DHT22;66927;48.812;9.118;2023-07-29T05:32:10;18.70;99.90
12827;DHT22;66927;48.812;9.118;2023-07-29T05:34:35;18.80;99.90
12827;DHT22;66927;48.812;9.118;2023-07-29T05:37:01;18.80;99.90
12827;DHT22;66927;48.812;9.118;2023-07-29T05:39:26;18.80;99.90
12827;DHT22;66927;48.812;9.118;2023-07-29T05:41:52;18.80;99.90
12827;DHT22;66927;48.812;9.118;2023-07-29T05:44:20;18.80;99.90
12827;DHT22;66927;48.812;9.118;2023-07-29T05:46:45;18.90;99.90
12827;DHT22;66927;48.812;9.118;2023-07-29T05:49:11;18.80;99.90
12827;DHT22;66927;48.812;9.118;2023-07-29T05:51:37;18.90;99.90
12827;DHT22;66927;48.812;9.118;2023-07-29T05:54:02;18.80;99.90
12827;DHT22;66927;48.812;9.118;2023-07-29T05:56:29;18.90;99.90
12827;DHT22;66927;48.812;9.118;2023-07-29T05:58:56;18.90;99.90
12827;DHT22;66927;48.812;9.118;2023-07-29T06:01:22;18.90;99.90
12827;DHT22;66927;48.812;9.118;2023-07-29T06:03:48;19.00;99.90
12827;DHT22;66927;48.812;9.118;2023-07-29T06:06:13;19.00;99.90
12827;DHT22;66927;48.812;9.118;2023-07-29T06:08:39;19.00;99.90
12827;DHT22;66927;48.812;9.118;2023-07-29T06:11:04;19.00;99.90
12827;DHT22;66927;48.812;9.118;2023-07-29T06:13:32;19.00;99.90
12827;DHT22;66927;48.812;9.118;2023-07-29T06:15:58;19.10;99.90
12827;DHT22;66927;48.812;9.118;2023-07-29T06:18:25;19.10;99.90
12827;DHT22;66927;48.812;9.118;2023-07-29T06:20:51;19.10;99.90
12827;DHT22;66927;48.812;9.118;2023-07-29T06:23:17;19.10;99.90
12827;DHT22;66927;48.812;9.118;2023-07-29T06:25:42;19.10;99.90
12827;DHT22;66927;48.812;9.118;2023-07-29T06:28:09;19.10;99.90
12827;DHT22;66927;48.812;9.118;2023-07-29T06:30:35;19.20;99.90
12827;DHT22;66927;48.812;9.118;2023-07-29T06:33:00;19.10;99.90
12827;DHT22;66927;48.812;9.118;2023-07-29T06:35:26;19.20;99.90
12827;DHT22;66927;48.812;9.118;2023-07-29T06:37:52;19.20;99.90
12827;DHT22;66927;48.812;9.118;2023-07-29T06:40:17;19.20;99.90
12827;DHT22;66927;48.812;9.118;2023-07-29T06:42:43;19.20;99.90
12827;DHT22;66927;48.812;9.118;2023-07-29T06:45:08;19.30;99.90
12827;DHT22;66927;48.812;9.118;2023-07-29T06:47:35;19.20;99.90
12827;DHT22;66927;48.812;9.118;2023-07-29T06:50:01;19.20;99.90
12827;DHT22;66927;48.812;9.118;2023-07-29T06:52:26;19.20;99.90
12827;DHT22;66927;48.812;9.118;2023-07-29T06:54:52;19.20;99.90
12827;DHT22;66927;48.812;9.118;2023-07-29T06:57:17;19.20;99.90
12827;DHT22;66927;48.812;9.118;2023-07-29T06:59:43;19.20;99.90
12827;DHT22;66927;48.812;9.118;2023-07-29T07:02:08;19.20;99.90
12827;DHT22;66927;48.812;9.118;2023-07-29T07:04:34;19.20;99.90
12827;DHT22;66927;48.812;9.118;2023-07-29T07:06:59;19.20;99.90
12827;DHT22;66927;48.812;9.118;2023-07-29T07:09:26;19.20;99.90
12827;DHT22;66927;48.812;9.118;2023-07-29T07:11:51;19.20;99.90
12827;DHT22;66927;48.812;9.118;2023-07-29T07:14:17;19.20;99.90
12827;DHT22;66927;48.812;9.118;2023-07-29T07:16:44;19.20;99.90
12827;DHT22;66927;48.812;9.118;2023-07-29T07:19:10;19.20;99.90
12827;DHT22;66927;48.812;9.118;2023-07-29T07:21:36;19.20;99.90
12827;DHT22;66927;48.812;9.118;2023-07-29T07:24:02;19.20;99.90
12827;DHT22;66927;48.812;9.118;2023-07-29T07:26:27;19.20;99.90
12827;DHT22;66927;48.812;9.118;2023-07-29T07:28:54;19.20;99.90
12827;DHT22;66927;48.812;9.118;2023-07-29T07:31:20;19.20;99.90
12827;DHT22;66927;48.812;9.118;2023-07-29T07:33:45;19.10;99.90
12827;DHT22;66927;48.812;9.118;2023-07-29T07:36:11;19.20;99.90
12827;DHT22;66927;48.812;9.118;2023-07-29T07:38:36;19.20;99.90
12827;DHT22;66927;48.812;9.118;2023-07-29T07:41:02;19.20;99.90
12827;DHT22;66927;48.812;9.118;2023-07-29T07:43:28;19.20;99.90
12827;DHT22;66927;48.812;9.118;2023-07-29T07:46:01;19.20;99.90
12827;DHT22;66927;48.812;9.118;2023-07-29T07:48:27;19.20;99.90
12827;DHT22;66927;48.812;9.118;2023-07-29T07:50:54;19.20;99.90
12827;DHT22;66927;48.812;9.118;2023-07-29T07:53:20;19.20;99.90
12827;DHT22;66927;48.812;9.118;2023-07-29T07:55:46;19.20;99.90
12827;DHT22;66927;48.812;9.118;2023-07-29T07:58:12;19.20;99.90
12827;DHT22;66927;48.812;9.118;2023-07-29T08:00:37;19.20;99.90
12827;DHT22;66927;48.812;9.118;2023-07-29T08:03:05;19.20;99.90
12827;DHT22;66927;48.812;9.118;2023-07-29T08:05:31;19.20;99.90
12827;DHT22;66927;48.812;9.118;2023-07-29T08:07:57;19.30;99.90
12827;DHT22;66927;48.812;9.118;2023-07-29T08:10:23;19.30;99.90
12827;DHT22;66927;48.812;9.118;2023-07-29T08:12:48;19.30;99.90
12827;DHT22;66927;48.812;9.118;2023-07-29T08:15:14;19.40;99.90
12827;DHT22;66927;48.812;9.118;2023-07-29T08:17:39;19.40;99.90
12827;DHT22;66927;48.812;9.118;2023-07-29T08:20:05;19.40;99.90
12827;DHT22;66927;48.812;9.118;2023-07-29T08:22:32;19.40;99.90
12827;DHT22;66927;48.812;9.118;2023-07-29T08:24:59;19.50;99.90
12827;DHT22;66927;48.812;9.118;2023-07-29T08:27:24;19.50;99.90
12827;DHT22;66927;48.812;9.118;2023-07-29T08:29:50;19.50;99.90
12827;DHT22;66927;48.812;9.118;2023-07-29T08:32:17;19.60;99.90
12827;DHT22;66927;48.812;9.118;2023-07-29T08:34:43;19.60;99.90
12827;DHT22;66927;48.812;9.118;2023-07-29T08:37:08;19.60;99.90
12827;DHT22;66927;48.812;9.118;2023-07-29T08:39:34;19.70;99.90
12827;DHT22;66927;48.812;9.118;2023-07-29T08:42:01;19.70;99.90
12827;DHT22;66927;48.812;9.118;2023-07-29T08:44:33;19.70;99.90
12827;DHT22;66927;48.812;9.118;2023-07-29T08:47:01;19.70;99.90
12827;DHT22;66927;48.812;9.118;2023-07-29T08:49:27;19.80;99.90
12827;DHT22;66927;48.812;9.118;2023-07-29T08:51:54;20.00;99.90
12827;DHT22;66927;48.812;9.118;2023-07-29T08:54:21;20.00;99.90
12827;DHT22;66927;48.812;9.118;2023-07-29T08:56:47;20.10;99.90
12827;DHT22;66927;48.812;9.118;2023-07-29T08:59:13;20.20;99.90
12827;DHT22;66927;48.812;9.118;2023-07-29T09:01:41;20.20;99.90
12827;DHT22;66927;48.812;9.118;2023-07-29T09:04:07;20.30;99.90
12827;DHT22;66927;48.812;9.118;2023-07-29T09:06:33;20.30;99.90
12827;DHT22;66927;48.812;9.118;2023-07-29T09:09:02;20.40;99.90
12827;DHT22;66927;48.812;9.118;2023-07-29T09:11:28;20.50;99.90
12827;DHT22;66927;48.812;9.118;2023-07-29T09:13:55;20.50;99.90
12827;DHT22;66927;48.812;9.118;2023-07-29T09:16:21;20.50;99.90
12827;DHT22;66927;48.812;9.118;2023-07-29T09:18:50;20.60;99.90
12827;DHT22;66927;48.812;9.118;2023-07-29T09:21:23;20.70;99.90
12827;DHT22;66927;48.812;9.118;2023-07-29T09:23:50;20.80;99.90
12827;DHT22;66927;48.812;9.118;2023-07-29T09:26:23;20.80;99.90
12827;DHT22;66927;48.812;9.118;2023-07-29T09:28:53;20.90;99.90
12827;DHT22;66927;48.812;9.118;2023-07-29T09:31:24;21.00;99.90
12827;DHT22;66927;48.812;9.118;2023-07-29T09:33:56;21.00;99.90
12827;DHT22;66927;48.812;9.118;2023-07-29T09:36:22;21.10;99.90
12827;DHT22;66927;48.812;9.118;2023-07-29T09:38:48;21.20;99.90
12827;DHT22;66927;48.812;9.118;2023-07-29T09:41:17;21.30;99.90
12827;DHT22;66927;48.812;9.118;2023-07-29T09:43:42;21.30;99.90
12827;DHT22;66927;48.812;9.118;2023-07-29T09:46:08;21.40;99.90
12827;DHT22;66927;48.812;9.118;2023-07-29T09:48:37;21.40;99.90
12827;DHT22;66927;48.812;9.118;2023-07-29T09:51:12;21.40;99.90
12827;DHT22;66927;48.812;9.118;2023-07-29T09:53:46;21.40;99.90
12827;DHT22;66927;48.812;9.118;2023-07-29T09:56:12;21.50;99.90
12827;DHT22;66927;48.812;9.118;2023-07-29T09:58:38;21.50;99.90
12827;DHT22;66927;48.812;9.118;2023-07-29T10:01:06;21.60;99.90
12827;DHT22;66927;48.812;9.118;2023-07-29T10:03:32;21.60;99.90
12827;DHT22;66927;48.812;9.118;2023-07-29T10:06:06;21.70;99.90
12827;DHT22;66927;48.812;9.118;2023-07-29T10:08:33;21.80;99.90
12827;DHT22;66927;48.812;9.118;2023-07-29T10:11:02;21.90;99.90
12827;DHT22;66927;48.812;9.118;2023-07-29T10:13:28;22.00;99.90
12827;DHT22;66927;48.812;9.118;2023-07-29T10:15:54;22.10;99.90
12827;DHT22;66927;48.812;9.118;2023-07-29T10:18:22;22.10;99.90
12827;DHT22;66927;48.812;9.118;2023-07-29T10:20:50;22.10;99.90
12827;DHT22;66927;48.812;9.118;2023-07-29T10:23:18;22.00;99.90
12827;DHT22;66927;48.812;9.118;2023-07-29T10:25:57;21.90;99.90
12827;DHT22;66927;48.812;9.118;2023-07-29T10:28:25;21.70;99.90
12827;DHT22;66927;48.812;9.118;2023-07-29T10:30:53;21.60;99.90
12827;DHT22;66927;48.812;9.118;2023-07-29T10:33:19;21.50;99.90
12827;DHT22;66927;48.812;9.118;2023-07-29T10:35:46;21.40;99.90
12827;DHT22;66927;48.812;9.118;2023-07-29T10:38:12;21.20;99.90
12827;DHT22;66927;48.812;9.118;2023-07-29T10:40:52;21.20;99.90
12827;DHT22;66927;48.812;9.118;2023-07-29T10:43:32;21.20;99.90
12827;DHT22;66927;48.812;9.118;2023-07-29T10:45:59;21.20;99.90
12827;DHT22;66927;48.812;9.118;2023-07-29T10:48:43;21.30;99.90
12827;DHT22;66927;48.812;9.118;2023-07-29T10:54:16;21.60;99.90
12827;DHT22;66927;48.812;9.118;2023-07-29T10:56:43;21.70;99.90
12827;DHT22;66927;48.812;9.118;2023-07-29T11:01:42;21.80;99.90
12827;DHT22;66927;48.812;9.118;2023-07-29T11:17:48;22.40;99.90
12827;DHT22;66927;48.812;9.118;2023-07-29T11:20:15;22.50;99.90
12827;DHT22;66927;48.812;9.118;2023-07-29T11:22:41;22.50;99.90
12827;DHT22;66927;48.812;9.118;2023-07-29T11:25:09;22.50;99.90
12827;DHT22;66927;48.812;9.118;2023-07-29T11:27:35;22.50;99.90
12827;DHT22;66927;48.812;9.118;2023-07-29T11:30:04;22.40;99.90
12827;DHT22;66927;48.812;9.118;2023-07-29T11:32:34;22.30;99.90
12827;DHT22;66927;48.812;9.118;2023-07-29T11:35:14;22.30;99.90
12827;DHT22;66927;48.812;9.118;2023-07-29T11:37:41;22.30;99.90
12827;DHT22;66927;48.812;9.118;2023-07-29T11:40:08;22.30;99.90
12827;DHT22;66927;48.812;9.118;2023-07-29T11:42:36;22.40;99.90
12827;DHT22;66927;48.812;9.118;2023-07-29T11:45:03;22.50;99.90
12827;DHT22;66927;48.812;9.118;2023-07-29T11:47:30;22.60;99.90
12827;DHT22;66927;48.812;9.118;2023-07-29T11:49:58;22.60;99.90
12827;DHT22;66927;48.812;9.118;2023-07-29T11:52:25;22.70;99.90
12827;DHT22;66927;48.812;9.118;2023-07-29T11:54:52;22.70;99.90
12827;DHT22;66927;48.812;9.118;2023-07-29T11:57:18;22.90;99.90
12827;DHT22;66927;48.812;9.118;2023-07-29T11:59:45;22.90;99.90
12827;DHT22;66927;48.812;9.118;2023-07-29T12:02:13;23.00;99.90
12827;DHT22;66927;48.812;9.118;2023-07-29T12:04:41;23.10;99.90
12827;DHT22;66927;48.812;9.118;2023-07-29T12:07:07;23.20;99.90
12827;DHT22;66927;48.812;9.118;2023-07-29T12:09:36;23.30;99.90
12827;DHT22;66927;48.812;9.118;2023-07-29T12:12:06;23.30;99.90
12827;DHT22;66927;48.812;9.118;2023-07-29T12:14:33;23.40;99.90
12827;DHT22;66927;48.812;9.118;2023-07-29T12:17:05;23.50;99.90
12827;DHT22;66927;48.812;9.118;2023-07-29T12:19:36;23.60;99.90
12827;DHT22;66927;48.812;9.118;2023-07-29T12:22:04;23.70;99.90
12827;DHT22;66927;48.812;9.118;2023-07-29T12:24:32;23.80;99.90
12827;DHT22;66927;48.812;9.118;2023-07-29T12:26:59;23.90;99.90
12827;DHT22;66927;48.812;9.118;2023-07-29T12:29:25;24.00;99.90
12827;DHT22;66927;48.812;9.118;2023-07-29T12:32:03;24.00;99.90
12827;DHT22;66927;48.812;9.118;2023-07-29T12:34:32;24.10;99.90
12827;DHT22;66927;48.812;9.118;2023-07-29T12:36:58;24.10;99.90
12827;DHT22;66927;48.812;9.118;2023-07-29T12:39:26;24.10;99.90
12827;DHT22;66927;48.812;9.118;2023-07-29T12:41:56;24.20;99.90
12827;DHT22;66927;48.812;9.118;2023-07-29T12:44:25;24.30;99.90
12827;DHT22;66927;48.812;9.118;2023-07-29T12:46:51;24.30;99.90
12827;DHT22;66927;48.812;9.118;2023-07-29T12:49:17;24.40;99.90
12827;DHT22;66927;48.812;9.118;2023-07-29T12:51:43;24.50;99.90
12827;DHT22;66927;48.812;9.118;2023-07-29T12:54:15;24.70;99.90
12827;DHT22;66927;48.812;9.118;2023-07-29T12:56:40;24.70;99.90
12827;DHT22;66927;48.812;9.118;2023-07-29T12:59:06;24.70;99.90
12827;DHT22;66927;48.812;9.118;2023-07-29T13:01:32;24.70;99.90
12827;DHT22;66927;48.812;9.118;2023-07-29T13:03:58;24.80;99.90
12827;DHT22;66927;48.812;9.118;2023-07-29T13:06:23;24.80;99.90
12827;DHT22;66927;48.812;9.118;2023-07-29T13:08:50;24.80;99.90
12827;DHT22;66927;48.812;9.118;2023-07-29T13:11:16;24.80;99.90
12827;DHT22;66927;48.812;9.118;2023-07-29T13:13:42;24.80;99.90
12827;DHT22;66927;48.812;9.118;2023-07-29T13:16:08;24.90;99.90
12827;DHT22;66927;48.812;9.118;2023-07-29T13:18:34;24.90;99.90
12827;DHT22;66927;48.812;9.118;2023-07-29T13:21:00;25.10;99.90
12827;DHT22;66927;48.812;9.118;2023-07-29T13:23:26;25.10;99.90
12827;DHT22;66927;48.812;9.118;2023-07-29T13:25:55;25.20;99.90
12827;DHT22;66927;48.812;9.118;2023-07-29T13:28:20;25.20;99.90
12827;DHT22;66927;48.812;9.118;2023-07-29T13:30:46;25.20;99.90
12827;DHT22;66927;48.812;9.118;2023-07-29T13:33:11;25.10;99.90
12827;DHT22;66927;48.812;9.118;2023-07-29T13:35:37;25.10;99.90
12827;DHT22;66927;48.812;9.118;2023-07-29T13:38:03;25.00;99.90
12827;DHT22;66927;48.812;9.118;2023-07-29T13:40:29;24.90;99.90
12827;DHT22;66927;48.812;9.118;2023-07-29T13:42:55;24.80;99.90
12827;DHT22;66927;48.812;9.118;2023-07-29T13:45:22;24.70;99.90
12827;DHT22;66927;48.812;9.118;2023-07-29T13:47:48;24.70;99.90
12827;DHT22;66927;48.812;9.118;2023-07-29T13:50:17;24.70;99.90
12827;DHT22;66927;48.812;9.118;2023-07-29T13:52:43;24.60;99.90
12827;DHT22;66927;48.812;9.118;2023-07-29T13:55:09;24.50;99.90
12827;DHT22;66927;48.812;9.118;2023-07-29T13:57:38;24.40;99.90
12827;DHT22;66927;48.812;9.118;2023-07-29T14:00:06;24.40;99.90
12827;DHT22;66927;48.812;9.118;2023-07-29T14:02:33;24.30;99.90
12827;DHT22;66927;48.812;9.118;2023-07-29T14:04:59;24.30;99.90
12827;DHT22;66927;48.812;9.118;2023-07-29T14:07:24;24.40;99.90
12827;DHT22;66927;48.812;9.118;2023-07-29T14:09:50;24.40;99.90
12827;DHT22;66927;48.812;9.118;2023-07-29T14:12:15;24.50;99.90
12827;DHT22;66927;48.812;9.118;2023-07-29T14:14:42;24.70;99.90
12827;DHT22;66927;48.812;9.118;2023-07-29T14:17:08;24.80;99.90
12827;DHT22;66927;48.812;9.118;2023-07-29T14:19:35;24.90;99.90
12827;DHT22;66927;48.812;9.118;2023-07-29T14:22:01;24.90;99.90
12827;DHT22;66927;48.812;9.118;2023-07-29T14:24:27;25.00;99.90
12827;DHT22;66927;48.812;9.118;2023-07-29T14:26:53;25.00;99.90
12827;DHT22;66927;48.812;9.118;2023-07-29T14:29:19;24.90;99.90
12827;DHT22;66927;48.812;9.118;2023-07-29T14:31:45;24.90;99.90
12827;DHT22;66927;48.812;9.118;2023-07-29T14:34:10;24.80;99.90
12827;DHT22;66927;48.812;9.118;2023-07-29T14:36:36;24.70;99.90
12827;DHT22;66927;48.812;9.118;2023-07-29T14:39:02;24.70;99.90
12827;DHT22;66927;48.812;9.118;2023-07-29T14:41:30;24.60;99.90
12827;DHT22;66927;48.812;9.118;2023-07-29T14:43:55;24.50;99.90
12827;DHT22;66927;48.812;9.118;2023-07-29T14:46:21;24.50;99.90
12827;DHT22;66927;48.812;9.118;2023-07-29T14:48:47;24.40;99.90
12827;DHT22;66927;48.812;9.118;2023-07-29T14:51:14;24.30;99.90
12827;DHT22;66927;48.812;9.118;2023-07-29T14:53:39;24.30;99.90
12827;DHT22;66927;48.812;9.118;2023-07-29T14:56:06;24.20;99.90
12827;DHT22;66927;48.812;9.118;2023-07-29T14:58:32;24.20;99.90
12827;DHT22;66927;48.812;9.118;2023-07-29T15:00:58;24.20;99.90
12827;DHT22;66927;48.812;9.118;2023-07-29T15:03:24;24.20;99.90
12827;DHT22;66927;48.812;9.118;2023-07-29T15:05:50;24.10;99.90
12827;DHT22;66927;48.812;9.118;2023-07-29T15:08:16;24.10;99.90
12827;DHT22;66927;48.812;9.118;2023-07-29T15:10:49;24.00;99.90
12827;DHT22;66927;48.812;9.118;2023-07-29T15:13:15;24.00;99.90
12827;DHT22;66927;48.812;9.118;2023-07-29T15:15:44;24.00;99.90
12827;DHT22;66927;48.812;9.118;2023-07-29T15:18:10;24.00;99.90
12827;DHT22;66927;48.812;9.118;2023-07-29T15:20:36;24.10;99.90
12827;DHT22;66927;48.812;9.118;2023-07-29T15:23:02;24.20;99.90
12827;DHT22;66927;48.812;9.118;2023-07-29T15:25:27;24.30;99.90
12827;DHT22;66927;48.812;9.118;2023-07-29T15:27:53;24.30;99.90
12827;DHT22;66927;48.812;9.118;2023-07-29T15:30:19;24.30;99.90
12827;DHT22;66927;48.812;9.118;2023-07-29T15:32:44;24.30;99.90
12827;DHT22;66927;48.812;9.118;2023-07-29T15:35:10;24.30;99.90
12827;DHT22;66927;48.812;9.118;2023-07-29T15:37:36;24.20;99.90
12827;DHT22;66927;48.812;9.118;2023-07-29T15:40:02;24.20;99.90
12827;DHT22;66927;48.812;9.118;2023-07-29T15:42:28;24.20;99.90
12827;DHT22;66927;48.812;9.118;2023-07-29T15:44:54;24.10;99.90
12827;DHT22;66927;48.812;9.118;2023-07-29T15:47:20;24.10;99.90
12827;DHT22;66927;48.812;9.118;2023-07-29T15:49:46;24.10;99.90
12827;DHT22;66927;48.812;9.118;2023-07-29T15:52:11;24.10;99.90
12827;DHT22;66927;48.812;9.118;2023-07-29T15:54:40;24.10;99.90